Time;durP1;ratioP1;P1;durP2;ratioP2;P2;SDS_P1;SDS_P2;PMS_P1;PMS_P2;Temp;Humidity;BMP_temperature;BMP_pressure;BME280_temperature;BME280_humidity;BME280_pressure;Samples;Min_cycle;Max_cycle;Signal;HPM_P1;HPM_P2
2023/12/08 00:01:23;;;;;;;3.95;2.47;;;;;;;7.07;100.00;99880.81;4997925;28;20223;-68
2023/12/08 00:03:49;;;;;;;3.22;2.25;;;;;;;7.01;100.00;99882.19;4997141;28;20034;-68
2023/12/08 00:06:14;;;;;;;3.92;2.28;;;;;;;7.01;100.00;99879.56;4997796;28;20444;-67
2023/12/08 00:08:40;;;;;;;3.47;2.47;;;;;;;6.92;100.00;99876.91;4997592;28;20038;-66
2023/12/08 00:11:06;;;;;;;2.33;2.13;;;;;;;6.88;100.00;99892.13;4996961;28;20232;-67
2023/12/08 00:13:32;;;;;;;4.55;2.50;;;;;;;6.93;100.00;99891.72;4997438;28;20038;-67
2023/12/08 00:15:57;;;;;;;2.53;2.30;;;;;;;7.02;100.00;99890.91;4997317;28;20039;-67
2023/12/08 00:18:23;;;;;;;3.50;2.30;;;;;;;6.86;100.00;99891.44;4997089;28;20232;-67
2023/12/08 00:20:49;;;;;;;3.92;2.15;;;;;;;6.91;100.00;99886.59;4997321;28;20070;-68
2023/12/08 00:23:14;;;;;;;6.00;3.13;;;;;;;6.90;100.00;99882.31;4996892;28;20235;-68
2023/12/08 00:25:40;;;;;;;3.63;2.53;;;;;;;6.84;100.00;99884.63;4997046;28;20287;-67
2023/12/08 00:28:06;;;;;;;3.63;2.47;;;;;;;6.85;100.00;99894.19;4997001;28;20331;-67
2023/12/08 00:30:31;;;;;;;3.97;2.45;;;;;;;6.78;100.00;99890.44;4996887;28;20065;-66
2023/12/08 00:32:57;;;;;;;4.25;2.85;;;;;;;6.87;100.00;99890.47;4996350;28;20031;-68
2023/12/08 00:35:22;;;;;;;5.63;2.92;;;;;;;6.89;100.00;99899.06;4996479;28;20038;-67
2023/12/08 00:37:48;;;;;;;3.65;3.08;;;;;;;6.90;100.00;99902.53;4996694;28;20053;-66
2023/12/08 00:40:16;;;;;;;3.92;2.67;;;;;;;6.93;100.00;99900.47;4996868;28;20046;-66
2023/12/08 00:42:41;;;;;;;3.33;2.90;;;;;;;6.90;100.00;99895.47;4996982;28;20057;-67
2023/12/08 00:45:07;;;;;;;4.07;3.03;;;;;;;6.91;100.00;99899.75;4996854;28;20308;-66
2023/12/08 00:47:33;;;;;;;5.25;3.65;;;;;;;6.94;100.00;99899.50;4996249;28;20106;-68
2023/12/08 00:49:58;;;;;;;4.75;3.00;;;;;;;6.92;100.00;99900.59;4997103;28;20264;-68
2023/12/08 00:52:24;;;;;;;4.50;2.95;;;;;;;6.83;100.00;99901.41;4996745;28;20046;-67
2023/12/08 00:54:49;;;;;;;5.30;3.55;;;;;;;6.80;100.00;99902.50;4996281;28;20065;-67
2023/12/08 00:57:15;;;;;;;4.75;3.47;;;;;;;6.67;100.00;99908.00;4997250;28;20053;-67
2023/12/08 00:59:41;;;;;;;4.47;2.97;;;;;;;6.65;100.00;99899.41;4997086;28;20089;-67
2023/12/08 01:02:07;;;;;;;5.63;3.35;;;;;;;6.72;100.00;99902.34;4997211;28;20042;-68
2023/12/08 01:04:33;;;;;;;6.25;3.67;;;;;;;6.71;100.00;99908.56;4996378;28;20228;-68
2023/12/08 01:06:59;;;;;;;5.63;3.20;;;;;;;6.66;100.00;99916.84;4996732;28;20042;-66
2023/12/08 01:09:24;;;;;;;4.75;3.33;;;;;;;6.71;100.00;99905.94;4995703;28;20820;-67
2023/12/08 01:11:50;;;;;;;7.20;3.90;;;;;;;6.70;100.00;99906.91;4995903;28;20042;-67
2023/12/08 01:14:15;;;;;;;5.80;3.80;;;;;;;6.68;100.00;99907.03;4995543;28;20042;-66
2023/12/08 01:16:42;;;;;;;4.05;3.42;;;;;;;6.68;100.00;99903.56;4996287;28;20034;-68
2023/12/08 01:19:11;;;;;;;4.82;3.28;;;;;;;6.64;100.00;99907.44;4995754;28;20034;-68
2023/12/08 01:21:37;;;;;;;5.40;4.13;;;;;;;6.65;100.00;99907.31;4995303;28;20237;-67
2023/12/08 01:24:03;;;;;;;5.57;3.72;;;;;;;6.72;100.00;99899.72;4995492;28;20049;-67
2023/12/08 01:26:29;;;;;;;7.03;4.57;;;;;;;6.60;100.00;99903.41;4996429;28;20038;-67
2023/12/08 01:28:55;;;;;;;6.72;4.30;;;;;;;6.55;100.00;99906.44;4996246;28;20096;-66
2023/12/08 01:31:21;;;;;;;5.82;3.90;;;;;;;6.55;100.00;99903.81;4996201;28;20054;-67
2023/12/08 01:33:47;;;;;;;4.82;3.05;;;;;;;6.56;100.00;99904.63;4995861;28;20026;-68
2023/12/08 01:36:12;;;;;;;6.88;3.67;;;;;;;6.59;100.00;99905.19;4996442;28;20110;-67
2023/12/08 01:38:38;;;;;;;5.07;3.83;;;;;;;6.63;100.00;99911.88;4995851;28;20297;-67
2023/12/08 01:41:04;;;;;;;6.97;3.95;;;;;;;6.69;100.00;99905.25;4996532;28;20046;-66
2023/12/08 01:43:29;;;;;;;6.03;4.10;;;;;;;6.75;100.00;99911.75;4996315;28;20070;-69
2023/12/08 01:45:58;;;;;;;5.32;3.72;;;;;;;6.76;100.00;99902.91;4995969;28;20457;-68
2023/12/08 01:48:24;;;;;;;5.43;4.05;;;;;;;6.76;100.00;99895.00;4996413;28;20058;-67
2023/12/08 01:50:50;;;;;;;7.05;4.70;;;;;;;6.84;100.00;99900.44;4995511;28;20359;-67
2023/12/08 01:53:16;;;;;;;5.40;3.88;;;;;;;6.86;100.00;99896.69;4995218;28;20038;-67
2023/12/08 01:55:42;;;;;;;5.82;3.92;;;;;;;6.80;100.00;99896.41;4995881;28;20161;-67
2023/12/08 01:58:08;;;;;;;4.88;4.05;;;;;;;6.66;100.00;99894.97;4998355;28;20034;-67
2023/12/08 02:00:35;;;;;;;7.30;4.68;;;;;;;6.70;100.00;99904.28;4999647;28;20053;-68
2023/12/08 02:03:01;;;;;;;4.78;4.03;;;;;;;6.75;100.00;99899.44;5000354;28;20255;-68
2023/12/08 02:05:27;;;;;;;6.35;4.03;;;;;;;6.82;100.00;99900.56;4998986;28;20042;-67
2023/12/08 02:07:54;;;;;;;6.68;4.32;;;;;;;6.88;100.00;99894.75;4998163;28;20239;-67
2023/12/08 02:10:20;;;;;;;7.43;4.70;;;;;;;6.89;100.00;99904.31;4999158;28;20110;-68
2023/12/08 02:12:46;;;;;;;6.60;4.25;;;;;;;6.89;100.00;99904.31;4999784;28;20034;-68
2023/12/08 02:15:12;;;;;;;8.18;5.68;;;;;;;6.77;100.00;99886.97;4999798;28;20113;-67
2023/12/08 02:17:38;;;;;;;6.90;4.13;;;;;;;6.72;100.00;99900.53;5000145;28;20046;-67
2023/12/08 02:20:11;;;;;;;9.07;4.55;;;;;;;6.65;100.00;99898.56;4999251;28;20038;-66
2023/12/08 02:22:37;;;;;;;6.47;4.47;;;;;;;6.70;100.00;99910.38;4998459;28;20072;-66
2023/12/08 02:25:03;;;;;;;7.57;4.10;;;;;;;6.66;100.00;99906.34;4998041;28;20030;-68
2023/12/08 02:27:29;;;;;;;8.00;4.90;;;;;;;6.60;100.00;99909.50;4998928;28;20058;-68
2023/12/08 02:29:55;;;;;;;7.35;4.85;;;;;;;6.59;100.00;99913.09;5000390;28;20034;-67
2023/12/08 02:32:30;;;;;;;7.60;4.75;;;;;;;6.60;100.00;99914.75;4998578;28;20038;-66
2023/12/08 02:35:01;;;;;;;7.60;4.80;;;;;;;6.64;100.00;99916.16;4998622;28;20046;-67
2023/12/08 02:37:31;;;;;;;8.10;4.22;;;;;;;6.66;100.00;99916.84;4997588;28;20084;-68
2023/12/08 02:39:57;;;;;;;8.32;4.22;;;;;;;6.66;100.00;99913.41;4998246;28;20220;-66
2023/12/08 02:42:23;;;;;;;6.90;4.05;;;;;;;6.64;100.00;99915.31;4998177;28;20351;-67
2023/12/08 02:44:48;;;;;;;8.10;4.20;;;;;;;6.59;100.00;99910.47;4998732;28;20072;-67
2023/12/08 02:47:14;;;;;;;6.85;4.20;;;;;;;6.61;100.00;99916.44;4999000;28;20065;-67
2023/12/08 02:49:40;;;;;;;6.22;4.10;;;;;;;6.52;100.00;99916.38;4999215;28;20030;-67
2023/12/08 02:52:05;;;;;;;8.30;5.38;;;;;;;6.65;100.00;99914.34;4998474;28;20039;-67
2023/12/08 02:54:31;;;;;;;8.07;4.63;;;;;;;6.74;100.00;99913.56;4998014;28;20041;-68
2023/12/08 02:56:56;;;;;;;8.18;5.43;;;;;;;6.68;100.00;99917.56;4998740;28;20355;-68
2023/12/08 02:59:22;;;;;;;6.70;4.80;;;;;;;6.66;100.00;99918.66;4999654;28;20042;-67
2023/12/08 03:01:47;;;;;;;8.15;5.18;;;;;;;6.63;100.00;99919.75;4999940;28;20057;-67
2023/12/08 03:04:14;;;;;;;8.10;5.30;;;;;;;6.64;100.00;99918.78;5001030;28;20046;-66
2023/12/08 03:06:40;;;;;;;9.85;5.70;;;;;;;6.69;100.00;99919.22;4998890;28;20251;-66
2023/12/08 03:09:05;;;;;;;7.65;5.00;;;;;;;6.71;100.00;99922.56;4996273;28;20058;-67
2023/12/08 03:11:31;;;;;;;8.43;5.85;;;;;;;6.69;100.00;99915.75;4998449;28;20030;-66
2023/12/08 03:13:56;;;;;;;10.25;5.18;;;;;;;6.59;100.00;99913.09;4998337;28;20050;-67
2023/12/08 03:16:22;;;;;;;10.20;5.70;;;;;;;6.59;100.00;99912.25;4998461;28;20336;-68
2023/12/08 03:18:47;;;;;;;6.95;4.90;;;;;;;6.50;100.00;99910.41;4998602;28;20245;-69
2023/12/08 03:21:23;;;;;;;9.50;5.28;;;;;;;6.44;100.00;99917.03;4998580;28;20046;-66
2023/12/08 03:23:49;;;;;;;7.93;5.70;;;;;;;6.42;100.00;99918.13;4998712;28;20387;-67
2023/12/08 03:26:15;;;;;;;11.00;6.25;;;;;;;6.41;100.00;99914.69;4998029;28;20060;-66
2023/12/08 03:28:40;;;;;;;7.57;5.38;;;;;;;6.44;100.00;99922.31;4997906;28;20034;-68
2023/12/08 03:31:06;;;;;;;8.48;5.93;;;;;;;6.47;100.00;99922.03;4998204;28;20382;-68
2023/12/08 03:33:31;;;;;;;9.50;5.90;;;;;;;6.50;100.00;99920.94;4997538;28;20073;-67
2023/12/08 03:35:57;;;;;;;10.85;6.60;;;;;;;6.44;100.00;99917.03;4997682;28;20077;-67
2023/12/08 03:38:22;;;;;;;12.27;5.85;;;;;;;6.53;100.00;99921.50;4998121;28;20046;-66
2023/12/08 03:40:48;;;;;;;10.30;5.72;;;;;;;6.62;100.00;99925.16;4998284;28;20038;-67
2023/12/08 03:43:13;;;;;;;9.43;5.68;;;;;;;6.67;100.00;99921.16;4997698;28;20061;-67
2023/12/08 03:45:39;;;;;;;11.10;5.93;;;;;;;6.73;100.00;99915.34;4997943;28;20066;-69
2023/12/08 03:48:04;;;;;;;8.65;5.82;;;;;;;6.75;100.00;99912.59;4998087;28;20046;-68
2023/12/08 03:50:30;;;;;;;11.02;6.63;;;;;;;6.69;100.00;99906.06;4997777;28;20328;-67
2023/12/08 03:52:56;;;;;;;9.63;6.55;;;;;;;6.73;100.00;99912.72;4995836;28;20038;-66
2023/12/08 03:55:22;;;;;;;9.80;6.43;;;;;;;6.73;100.00;99914.53;4995747;28;20051;-67
2023/12/08 03:57:48;;;;;;;12.90;7.70;;;;;;;6.73;100.00;99914.53;4996960;28;20053;-66
2023/12/08 04:00:14;;;;;;;12.63;6.93;;;;;;;6.73;100.00;99918.00;4997036;28;20050;-68
2023/12/08 04:02:40;;;;;;;9.52;6.68;;;;;;;6.71;100.00;99905.94;4997617;28;20049;-68
2023/12/08 04:05:06;;;;;;;10.48;6.10;;;;;;;6.77;100.00;99909.84;4997256;28;20274;-67
2023/12/08 04:07:31;;;;;;;11.82;7.00;;;;;;;6.73;100.00;99910.09;4997474;28;20469;-67
2023/12/08 04:09:57;;;;;;;11.63;6.20;;;;;;;6.71;100.00;99908.56;4997207;28;20216;-67
2023/12/08 04:12:22;;;;;;;12.68;7.18;;;;;;;6.77;99.70;99908.03;4996510;28;20287;-68
2023/12/08 04:14:48;;;;;;;13.15;8.05;;;;;;;6.82;100.00;99905.84;4997244;28;20092;-68
2023/12/08 04:17:14;;;;;;;11.20;6.80;;;;;;;6.88;100.00;99912.34;4996395;28;20101;-67
2023/12/08 04:19:39;;;;;;;12.60;7.50;;;;;;;6.94;99.45;99911.81;4997739;28;20062;-67
2023/12/08 04:22:05;;;;;;;13.73;7.95;;;;;;;6.96;98.76;99908.09;4995918;28;20050;-66
2023/12/08 04:24:30;;;;;;;12.68;8.30;;;;;;;6.91;98.76;99910.28;4997326;28;20030;-69
2023/12/08 04:26:56;;;;;;;12.45;7.75;;;;;;;6.80;98.23;99896.41;4997461;28;20105;-68
2023/12/08 04:29:22;;;;;;;14.40;8.45;;;;;;;6.71;98.61;99903.31;4998024;28;20081;-67
2023/12/08 04:31:47;;;;;;;13.65;7.60;;;;;;;6.65;98.48;99906.47;4998193;28;20065;-66
2023/12/08 04:34:13;;;;;;;11.32;7.05;;;;;;;6.69;99.50;99910.50;4996811;28;20038;-67
2023/12/08 04:36:38;;;;;;;13.30;7.15;;;;;;;6.75;98.40;99903.88;4997200;28;20038;-67
2023/12/08 04:39:04;;;;;;;11.05;6.60;;;;;;;6.61;98.46;99902.44;4996873;28;20038;-68
2023/12/08 04:41:29;;;;;;;10.48;6.53;;;;;;;6.64;99.21;99905.63;4997412;28;20272;-68
2023/12/08 04:43:55;;;;;;;12.43;6.95;;;;;;;6.53;99.04;99908.38;4996599;28;20080;-67
2023/12/08 04:46:20;;;;;;;10.88;5.88;;;;;;;6.56;99.52;99920.41;4996870;28;20038;-66
2023/12/08 04:48:46;;;;;;;10.85;6.43;;;;;;;6.59;99.02;99920.16;4996426;28;20034;-67
2023/12/08 04:51:11;;;;;;;14.07;6.70;;;;;;;6.62;100.00;99917.25;4996582;28;20422;-67
2023/12/08 04:53:37;;;;;;;12.20;6.80;;;;;;;6.69;99.68;99915.75;4996968;28;20321;-68
2023/12/08 04:56:03;;;;;;;11.98;7.47;;;;;;;6.65;98.56;99920.47;4996865;28;20093;-68
2023/12/08 04:58:28;;;;;;;14.23;7.45;;;;;;;6.70;98.09;99913.00;4997355;28;20132;-67
2023/12/08 05:00:54;;;;;;;15.38;8.85;;;;;;;6.77;97.94;99915.09;4996690;28;20053;-67
2023/12/08 05:03:22;;;;;;;14.18;8.82;;;;;;;6.84;97.97;99914.44;4996755;28;20425;-67
2023/12/08 05:05:47;;;;;;;17.27;8.68;;;;;;;6.89;97.77;99922.75;4995988;28;20069;-67
2023/12/08 05:08:13;;;;;;;11.95;8.00;;;;;;;6.89;97.10;99928.00;4996046;28;20324;-68
2023/12/08 05:10:38;;;;;;;11.70;8.20;;;;;;;6.92;97.29;99926.91;4995492;28;20038;-68
2023/12/08 05:13:04;;;;;;;12.82;7.70;;;;;;;6.99;97.13;99928.88;4995853;28;20833;-70
2023/12/08 05:15:29;;;;;;;13.88;8.73;;;;;;;6.96;96.40;99925.69;4995583;28;20031;-67
2023/12/08 05:17:55;;;;;;;14.93;8.77;;;;;;;7.02;95.87;99933.03;4995280;28;20057;-67
2023/12/08 05:20:20;;;;;;;12.60;8.13;;;;;;;7.11;96.04;99931.41;4995558;28;20046;-69
2023/12/08 05:22:46;;;;;;;17.88;8.90;;;;;;;7.14;95.45;99931.13;4995222;28;20041;-68
2023/12/08 05:25:12;;;;;;;17.50;10.32;;;;;;;7.09;95.01;99921.00;4995827;28;20026;-67
2023/12/08 05:27:37;;;;;;;39.13;16.83;;;;;;;7.04;96.01;99933.75;4995747;28;20314;-67
2023/12/08 05:30:04;;;;;;;20.38;11.95;;;;;;;7.11;95.45;99929.59;4995709;28;20038;-67
2023/12/08 05:32:29;;;;;;;19.30;11.48;;;;;;;7.13;95.44;99932.09;4995039;28;20061;-69
2023/12/08 05:34:55;;;;;;;18.58;10.48;;;;;;;7.03;94.23;99935.53;4995353;28;20049;-69
2023/12/08 05:37:20;;;;;;;20.42;11.02;;;;;;;7.00;95.15;99932.34;4995588;28;20045;-68
2023/12/08 05:39:46;;;;;;;19.98;12.73;;;;;;;7.03;95.26;99932.91;4995613;28;20042;-67
2023/12/08 05:42:12;;;;;;;22.95;13.55;;;;;;;7.06;95.56;99942.34;4995372;28;20347;-67
2023/12/08 05:44:38;;;;;;;22.73;12.50;;;;;;;7.03;95.08;99943.44;4996107;28;20226;-69
2023/12/08 05:47:03;;;;;;;22.00;12.35;;;;;;;7.03;94.84;99948.69;4995982;28;20407;-69
2023/12/08 05:49:29;;;;;;;20.88;12.18;;;;;;;7.13;94.98;99953.16;4996023;28;20578;-68
2023/12/08 05:51:54;;;;;;;21.27;12.02;;;;;;;7.12;95.07;99947.06;4996772;28;20331;-68
2023/12/08 05:54:20;;;;;;;22.70;10.50;;;;;;;7.17;94.56;99949.28;4997027;28;20034;-68
2023/12/08 05:56:45;;;;;;;25.42;12.70;;;;;;;7.03;95.57;99942.59;4995478;28;20054;-67
2023/12/08 05:59:11;;;;;;;26.95;15.35;;;;;;;7.10;94.85;99948.16;4998234;28;20080;-69
2023/12/08 06:01:36;;;;;;;20.20;11.23;;;;;;;7.12;95.21;99938.31;4996074;28;20370;-69
2023/12/08 06:04:02;;;;;;;18.52;12.52;;;;;;;7.21;94.86;99950.69;4995642;28;20037;-68
2023/12/08 06:06:27;;;;;;;15.07;10.45;;;;;;;7.22;94.11;99954.97;4997003;28;20049;-67
2023/12/08 06:08:54;;;;;;;18.10;11.88;;;;;;;7.15;94.92;99946.78;4995885;28;20034;-68
2023/12/08 06:11:19;;;;;;;16.83;10.30;;;;;;;7.18;95.10;99958.84;4998620;28;20276;-69
2023/12/08 06:13:45;;;;;;;15.55;9.68;;;;;;;7.14;94.94;99963.56;4995319;28;20041;-69
2023/12/08 06:16:11;;;;;;;15.23;9.15;;;;;;;7.13;94.54;99971.59;4998679;28;20034;-67
2023/12/08 06:18:36;;;;;;;14.95;8.88;;;;;;;7.14;94.53;99965.34;4997138;28;20357;-68
2023/12/08 06:21:03;;;;;;;15.30;8.57;;;;;;;7.16;94.11;99974.78;4995787;28;20038;-68
2023/12/08 06:23:29;;;;;;;14.55;8.23;;;;;;;7.12;93.66;99970.75;4996890;28;20038;-67
2023/12/08 06:25:54;;;;;;;15.73;8.68;;;;;;;7.17;94.32;99979.09;4995696;28;20363;-67
2023/12/08 06:28:20;;;;;;;15.57;10.73;;;;;;;7.20;93.93;99986.72;4997907;28;20339;-69
2023/12/08 06:30:46;;;;;;;37.58;19.92;;;;;;;7.15;94.42;99981.03;4995365;28;20340;-69
2023/12/08 06:33:11;;;;;;;16.20;10.50;;;;;;;7.08;94.75;99992.22;4995479;28;20097;-67
2023/12/08 06:35:37;;;;;;;16.95;9.70;;;;;;;6.96;94.86;100000.22;4996374;28;20038;-67
2023/12/08 06:38:04;;;;;;;17.25;10.02;;;;;;;6.88;95.66;99996.59;4997419;28;20049;-68
2023/12/08 06:40:30;;;;;;;16.77;9.93;;;;;;;6.80;96.03;99999.88;4995524;28;20050;-69
2023/12/08 06:42:55;;;;;;;16.98;8.57;;;;;;;6.81;96.61;99996.28;4997615;28;20065;-68
2023/12/08 06:45:21;;;;;;;15.23;9.35;;;;;;;6.85;95.71;100005.59;4996685;28;20096;-67
2023/12/08 06:47:46;;;;;;;16.42;9.07;;;;;;;6.88;95.84;100001.84;5002085;28;20331;-68
2023/12/08 06:50:12;;;;;;;20.45;13.07;;;;;;;6.94;95.53;100001.31;4998824;28;20038;-67
2023/12/08 06:52:37;;;;;;;19.23;11.50;;;;;;;6.96;96.15;100002.03;4999795;28;20325;-67
2023/12/08 06:55:03;;;;;;;16.45;9.00;;;;;;;6.96;95.11;99994.13;4998092;28;20081;-69
2023/12/08 06:57:28;;;;;;;19.42;10.45;;;;;;;7.00;95.48;99999.00;4998752;28;20042;-69
2023/12/08 06:59:54;;;;;;;17.95;9.77;;;;;;;6.98;95.03;99998.28;4998649;28;20030;-67
2023/12/08 07:02:19;;;;;;;15.45;9.40;;;;;;;7.07;94.64;99995.81;4998409;28;20088;-68
2023/12/08 07:04:45;;;;;;;17.60;10.10;;;;;;;7.11;94.93;100005.13;4998196;28;20037;-68
2023/12/08 07:07:11;;;;;;;20.10;10.57;;;;;;;7.02;93.87;100001.50;4998297;28;20038;-69
2023/12/08 07:09:37;;;;;;;16.15;10.05;;;;;;;7.05;94.70;100001.22;4998526;28;20037;-69
2023/12/08 07:12:02;;;;;;;17.50;9.73;;;;;;;7.04;94.24;100002.19;4998774;28;20212;-67
2023/12/08 07:14:28;;;;;;;20.90;9.68;;;;;;;7.07;93.53;100001.94;4998477;28;20277;-67
2023/12/08 07:16:53;;;;;;;16.27;9.50;;;;;;;7.05;94.37;100002.06;4998389;28;20068;-69
2023/12/08 07:19:19;;;;;;;19.33;10.00;;;;;;;7.04;94.94;100004.81;4998354;28;20038;-69
2023/12/08 07:21:44;;;;;;;16.38;9.63;;;;;;;6.97;94.60;100004.53;4998666;28;20050;-69
2023/12/08 07:24:10;;;;;;;17.42;10.80;;;;;;;7.06;94.69;100016.06;4997918;28;20358;-67
2023/12/08 07:26:36;;;;;;;20.63;10.73;;;;;;;7.17;94.34;100015.13;4998276;28;20057;-67
2023/12/08 07:29:02;;;;;;;18.92;11.00;;;;;;;7.18;94.06;100017.63;4998213;28;20216;-68
2023/12/08 07:31:27;;;;;;;17.95;10.75;;;;;;;7.21;93.67;100027.06;4998503;28;20049;-67
2023/12/08 07:33:53;;;;;;;16.30;10.27;;;;;;;7.29;94.30;100014.91;4997100;28;20326;-67
2023/12/08 07:36:18;;;;;;;18.98;10.45;;;;;;;7.29;93.02;100019.34;4997298;28;20038;-69
2023/12/08 07:38:44;;;;;;;17.83;9.95;;;;;;;7.07;94.37;100016.88;4997430;28;20034;-69
2023/12/08 07:41:09;;;;;;;17.73;9.35;;;;;;;7.02;93.80;100004.97;4999700;28;20256;-68
2023/12/08 07:43:35;;;;;;;15.70;10.27;;;;;;;6.81;94.42;100003.34;4997792;28;20050;-68
2023/12/08 07:46:01;;;;;;;27.10;14.02;;;;;;;7.13;94.12;100021.63;4998332;28;20034;-69
2023/12/08 07:48:27;;;;;;;22.52;11.75;;;;;;;7.23;93.18;100017.22;4997152;28;20034;-69
2023/12/08 07:50:53;;;;;;;18.90;10.77;;;;;;;7.26;91.90;100022.22;4996845;28;20058;-67
2023/12/08 07:53:18;;;;;;;16.80;9.98;;;;;;;7.36;92.48;100018.69;4996599;28;20035;-68
2023/12/08 07:55:43;;;;;;;19.85;10.55;;;;;;;7.36;92.30;100023.94;4996446;28;20413;-68
2023/12/08 07:58:09;;;;;;;16.67;9.63;;;;;;;7.39;91.79;100022.00;4997210;28;20438;-69
2023/12/08 08:00:34;;;;;;;20.08;10.93;;;;;;;7.49;92.43;100031.59;4998766;28;20060;-69
2023/12/08 08:03:00;;;;;;;21.55;11.35;;;;;;;7.54;92.17;100024.13;4997144;28;20042;-68
2023/12/08 08:05:25;;;;;;;16.67;9.07;;;;;;;7.56;91.30;100024.81;4996891;28;20035;-68
2023/12/08 08:07:51;;;;;;;15.13;8.63;;;;;;;7.61;91.77;100038.44;4997076;28;20056;-68
2023/12/08 08:10:16;;;;;;;18.17;9.00;;;;;;;7.61;91.28;100021.78;4996708;28;20034;-68
2023/12/08 08:12:42;;;;;;;16.52;8.35;;;;;;;7.57;91.45;100036.19;4996506;28;20374;-69
2023/12/08 08:15:08;;;;;;;14.48;9.32;;;;;;;7.61;91.73;100034.97;4996746;28;20036;-69
2023/12/08 08:17:34;;;;;;;14.05;8.55;;;;;;;7.64;92.18;100026.78;4996882;28;20041;-68
2023/12/08 08:19:59;;;;;;;17.52;9.25;;;;;;;7.58;91.03;100036.06;4996493;28;20073;-68
2023/12/08 08:22:25;;;;;;;12.57;7.55;;;;;;;7.32;91.68;100033.09;4996329;28;20239;-69
2023/12/08 08:24:50;;;;;;;13.77;7.55;;;;;;;7.33;90.82;100039.19;4996300;28;20034;-69
2023/12/08 08:27:16;;;;;;;13.38;8.50;;;;;;;7.38;91.58;100042.25;4997089;28;20302;-69
2023/12/08 08:29:41;;;;;;;11.65;8.35;;;;;;;7.43;91.84;100036.59;4996148;28;20035;-67
2023/12/08 08:32:07;;;;;;;15.25;8.63;;;;;;;7.46;91.70;100039.78;4996675;28;20026;-67
2023/12/08 08:34:32;;;;;;;14.85;8.43;;;;;;;7.53;92.02;100043.53;4995605;28;20034;-67
2023/12/08 08:36:58;;;;;;;15.60;8.68;;;;;;;7.52;91.38;100044.50;4996453;28;20049;-67
2023/12/08 08:39:23;;;;;;;15.43;8.90;;;;;;;7.47;92.59;100040.63;4995712;28;20040;-67
2023/12/08 08:41:49;;;;;;;14.90;8.93;;;;;;;7.45;91.81;100043.38;4995531;28;20046;-67
2023/12/08 08:44:15;;;;;;;13.88;8.18;;;;;;;7.41;91.98;100035.88;4996440;28;20223;-69
2023/12/08 08:46:41;;;;;;;12.88;8.73;;;;;;;7.37;92.11;100035.31;4996371;28;20058;-69
2023/12/08 08:49:06;;;;;;;17.42;9.38;;;;;;;7.36;92.36;100047.66;4996631;28;20038;-67
2023/12/08 08:51:32;;;;;;;14.23;8.02;;;;;;;7.48;93.02;100040.47;4996941;28;20034;-67
2023/12/08 08:53:57;;;;;;;14.55;7.85;;;;;;;7.48;91.62;100039.66;4996278;28;20046;-69
2023/12/08 08:56:23;;;;;;;13.27;7.20;;;;;;;7.47;91.92;100040.63;4996072;28;20093;-69
2023/12/08 08:58:48;;;;;;;12.30;7.82;;;;;;;7.41;91.88;100034.09;4996440;28;20051;-67
2023/12/08 09:01:14;;;;;;;12.32;7.35;;;;;;;7.46;91.31;100041.59;4996900;28;20042;-68
2023/12/08 09:03:39;;;;;;;11.40;7.55;;;;;;;7.48;92.21;100040.47;4997053;28;20088;-67
2023/12/08 09:06:05;;;;;;;15.45;8.27;;;;;;;7.50;92.32;100043.81;4996953;28;20037;-67
2023/12/08 09:08:31;;;;;;;11.95;7.07;;;;;;;7.48;93.13;100037.84;4994623;28;20022;-67
2023/12/08 09:10:57;;;;;;;11.82;7.85;;;;;;;7.54;93.53;100039.09;4995848;28;20036;-68
2023/12/08 09:13:22;;;;;;;12.48;7.20;;;;;;;7.20;93.59;99996.41;4995951;28;20034;-67
2023/12/08 09:15:48;;;;;;;14.75;8.68;;;;;;;7.54;94.18;100031.19;4996545;28;20359;-69
2023/12/08 09:18:14;;;;;;;11.57;6.68;;;;;;;7.54;93.81;100037.31;4995748;28;20342;-69
2023/12/08 09:20:40;;;;;;;12.80;7.50;;;;;;;7.51;94.09;100028.84;4995713;28;20042;-68
2023/12/08 09:23:05;;;;;;;14.85;8.80;;;;;;;7.45;94.56;100034.66;4996528;28;20034;-68
2023/12/08 09:25:31;;;;;;;16.40;9.35;;;;;;;7.46;94.94;100023.13;4995481;28;20116;-67
2023/12/08 09:27:57;;;;;;;13.93;8.77;;;;;;;7.39;95.13;100027.28;4995901;28;20041;-69
2023/12/08 09:30:22;;;;;;;11.93;8.07;;;;;;;7.32;95.49;100014.66;4996178;28;20347;-69
2023/12/08 09:32:50;;;;;;;13.85;8.68;;;;;;;7.30;95.52;100021.84;4996101;28;20040;-67
2023/12/08 09:35:17;;;;;;;16.77;8.52;;;;;;;7.28;97.51;100015.03;4995663;28;20034;-68
2023/12/08 09:37:42;;;;;;;12.55;7.63;;;;;;;7.33;96.04;100012.84;4995725;28;20030;-68
2023/12/08 09:40:08;;;;;;;13.65;7.90;;;;;;;7.30;96.53;100013.13;4995181;28;20219;-68
2023/12/08 09:42:51;;;;;;;11.65;8.32;;;;;;;7.39;96.20;100004.41;4996018;28;20362;-68
2023/12/08 09:45:17;;;;;;;14.75;8.00;;;;;;;7.28;96.26;100004.50;4995955;28;20050;-67
2023/12/08 09:47:46;;;;;;;15.73;8.82;;;;;;;7.23;97.94;99996.16;4995693;28;20054;-69
2023/12/08 09:50:12;;;;;;;14.15;7.97;;;;;;;7.32;98.83;100000.66;4996158;28;20352;-69
2023/12/08 09:52:39;;;;;;;14.00;8.05;;;;;;;7.38;97.91;99991.38;4996010;28;20102;-68
2023/12/08 09:55:05;;;;;;;14.23;8.20;;;;;;;7.33;98.24;99994.41;4995089;28;20048;-68
2023/12/08 09:57:34;;;;;;;14.48;7.28;;;;;;;7.39;99.21;99988.59;4996813;28;20040;-69
2023/12/08 10:00:02;;;;;;;14.20;8.00;;;;;;;7.37;99.55;99985.28;4995758;28;20089;-69
2023/12/08 10:02:28;;;;;;;11.95;6.75;;;;;;;7.25;97.96;99989.78;4996407;28;20105;-68
2023/12/08 10:04:53;;;;;;;10.10;6.18;;;;;;;7.27;99.60;99989.66;4996244;28;20049;-67
2023/12/08 10:07:20;;;;;;;11.15;7.72;;;;;;;7.21;98.66;99993.66;4996141;28;20056;-67
2023/12/08 10:09:46;;;;;;;12.88;6.90;;;;;;;7.27;99.16;99982.59;4997532;28;20030;-67
2023/12/08 10:12:12;;;;;;;13.38;7.22;;;;;;;7.26;98.97;99977.44;4997272;28;20231;-67
2023/12/08 10:15:00;;;;;;;13.60;7.60;;;;;;;7.25;99.55;99983.69;4997054;28;20044;-69
2023/12/08 10:17:26;;;;;;;13.25;7.53;;;;;;;7.21;99.93;99985.75;4996054;28;20288;-69
2023/12/08 10:20:08;;;;;;;14.57;7.70;;;;;;;7.34;100.00;99983.75;5000663;28;20042;-68
2023/12/08 10:22:48;;;;;;;14.32;8.27;;;;;;;7.39;100.00;99980.69;5000882;28;20363;-68
2023/12/08 10:25:18;;;;;;;15.07;8.13;;;;;;;7.40;100.00;99978.91;5000310;28;20037;-69
2023/12/08 10:27:49;;;;;;;14.63;8.52;;;;;;;7.45;100.00;99972.25;5001301;28;20112;-69
2023/12/08 10:30:15;;;;;;;13.90;8.40;;;;;;;7.48;100.00;99956.16;5000250;28;20038;-68
2023/12/08 10:32:42;;;;;;;14.70;9.20;;;;;;;7.55;100.00;99959.91;5000933;28;20030;-67
2023/12/08 10:35:10;;;;;;;15.23;9.07;;;;;;;7.60;100.00;99964.78;5001355;28;20109;-68
2023/12/08 10:37:35;;;;;;;12.93;8.43;;;;;;;7.50;99.55;99962.13;5000100;28;20046;-68
2023/12/08 10:40:01;;;;;;;14.45;8.63;;;;;;;7.41;100.00;99956.84;4999549;28;20260;-67
2023/12/08 10:42:27;;;;;;;16.83;9.20;;;;;;;7.38;100.00;99952.69;4999438;28;20073;-69
2023/12/08 10:44:53;;;;;;;16.98;9.40;;;;;;;7.42;100.00;99954.06;4998958;28;20291;-69
2023/12/08 10:47:20;;;;;;;14.52;9.38;;;;;;;7.46;100.00;99952.00;4998939;28;20046;-67
2023/12/08 10:49:49;;;;;;;18.38;10.32;;;;;;;7.52;100.00;99946.19;4999006;28;20096;-68
2023/12/08 10:52:15;;;;;;;19.52;11.40;;;;;;;7.63;100.00;99941.63;4998374;28;20109;-68
2023/12/08 10:54:40;;;;;;;17.15;10.02;;;;;;;7.56;100.00;99934.41;4998166;28;20060;-69
2023/12/08 10:57:07;;;;;;;16.60;9.75;;;;;;;7.40;100.00;99934.09;4999405;28;20051;-68
2023/12/08 10:59:37;;;;;;;21.25;11.77;;;;;;;7.51;100.00;99937.44;4998936;28;20236;-68
2023/12/08 11:02:04;;;;;;;23.13;13.68;;;;;;;7.47;100.00;99941.31;4999266;28;20057;-67
2023/12/08 11:04:33;;;;;;;18.48;12.25;;;;;;;7.56;100.00;99939.66;4998622;28;20038;-67
2023/12/08 11:07:12;;;;;;;18.55;10.88;;;;;;;7.51;100.00;99931.34;4998768;28;20042;-67
2023/12/08 11:09:39;;;;;;;16.92;9.15;;;;;;;7.46;100.00;99929.13;4998886;28;20192;-69
2023/12/08 11:12:07;;;;;;;16.02;10.25;;;;;;;7.45;100.00;99931.91;4998608;28;20050;-69
2023/12/08 11:14:44;;;;;;;16.90;9.68;;;;;;;7.45;100.00;99937.16;4999285;28;20042;-67
2023/12/08 11:17:33;;;;;;;19.42;9.95;;;;;;;7.42;100.00;99938.28;4998129;28;20340;-68
2023/12/08 11:19:59;;;;;;;18.67;9.48;;;;;;;7.41;100.00;99933.13;4997467;28;20244;-69
2023/12/08 11:22:25;;;;;;;15.57;8.63;;;;;;;7.39;100.00;99937.72;4998007;28;20068;-69
2023/12/08 11:24:50;;;;;;;17.75;10.50;;;;;;;7.40;100.00;99939.38;4998324;28;20039;-67